Terminal Aerodrome Forecast
Issued by NWS Albany, NY

Home | Current Version | Previous Version | Text Only | Print | Product List | Glossary On
Versions: 1 2 3 4 5 6 7 8 9 10 11 12 13
000
FTUS41 KALY 221914 AAA
TAFALB
TAF AMD
KALB 221914Z 2219/2318 27006KT P6SM VCSH BKN150
     FM222100 27006KT P6SM BKN150
     FM230400 35004KT P6SM BKN050
     FM231400 03006KT P6SM BKN050=

USA.gov is the U.S. government's official web portal to all federal, state and local government web resources and services.